Time;durP1;ratioP1;P1;durP2;ratioP2;P2;SDS_P1;SDS_P2;PMS_P1;PMS_P2;Temp;Humidity;BMP_temperature;BMP_pressure;BME280_temperature;BME280_humidity;BME280_pressure;Samples;Min_cycle;Max_cycle;Signal;HPM_P1;HPM_P2
2023/02/13 00:00:12;;;;;;;8.57;4.63;;;1.40;98.00;;;;;;5015199;28;20971;-67
2023/02/13 00:02:39;;;;;;;7.23;4.30;;;1.50;98.00;;;;;;5015297;28;20485;-67
2023/02/13 00:05:07;;;;;;;8.87;3.83;;;1.50;98.00;;;;;;5015101;28;20871;-66
2023/02/13 00:07:35;;;;;;;7.87;4.27;;;1.40;98.00;;;;;;5015201;28;20463;-67
2023/02/13 00:10:03;;;;;;;4.33;3.03;;;1.40;98.00;;;;;;5014907;28;20468;-66
2023/02/13 00:12:31;;;;;;;5.80;3.43;;;1.40;98.00;;;;;;5015211;28;20461;-66
2023/02/13 00:14:59;;;;;;;5.17;3.43;;;1.30;98.00;;;;;;5014919;28;20515;-66
2023/02/13 00:17:26;;;;;;;9.63;4.50;;;1.40;98.00;;;;;;5014817;28;20468;-67
2023/02/13 00:19:56;;;;;;;4.83;3.87;;;1.50;98.00;;;;;;5014972;28;20941;-67
2023/02/13 00:22:23;;;;;;;9.43;3.80;;;1.50;98.00;;;;;;5014869;28;21151;-67
2023/02/13 00:24:51;;;;;;;7.53;3.83;;;1.40;98.00;;;;;;5014946;28;20893;-67
2023/02/13 00:27:18;;;;;;;7.60;4.13;;;1.40;98.00;;;;;;5014939;28;20471;-67
2023/02/13 00:29:46;;;;;;;3.87;2.93;;;1.30;98.00;;;;;;5014546;28;20843;-67
2023/02/13 00:32:14;;;;;;;10.17;3.57;;;1.20;98.00;;;;;;5014866;28;20490;-66
2023/02/13 00:34:42;;;;;;;7.20;3.60;;;1.30;98.00;;;;;;5014928;28;20455;-67
2023/02/13 00:37:09;;;;;;;7.03;3.90;;;1.10;98.00;;;;;;5014537;28;20533;-66
2023/02/13 00:39:36;;;;;;;9.70;3.60;;;1.20;98.00;;;;;;5014557;28;20959;-67
2023/02/13 00:42:04;;;;;;;10.13;4.27;;;1.20;98.00;;;;;;5014296;28;20486;-66
2023/02/13 00:44:31;;;;;;;7.93;3.97;;;1.30;98.00;;;;;;5014473;28;20510;-66
2023/02/13 00:46:59;;;;;;;5.00;3.30;;;1.10;98.00;;;;;;5014407;28;20459;-66
2023/02/13 00:49:26;;;;;;;6.90;4.23;;;1.00;98.00;;;;;;5014227;28;20522;-66
2023/02/13 00:51:53;;;;;;;10.00;4.93;;;1.20;98.00;;;;;;5014263;28;20479;-66
2023/02/13 00:54:20;;;;;;;8.73;4.40;;;1.30;98.00;;;;;;5014034;28;20522;-66
2023/02/13 00:56:48;;;;;;;7.50;3.40;;;1.40;98.00;;;;;;5014113;28;20451;-67
2023/02/13 00:59:16;;;;;;;6.97;3.53;;;1.50;98.00;;;;;;5014060;28;20874;-67
2023/02/13 01:01:43;;;;;;;4.10;3.20;;;1.50;98.00;;;;;;5013467;28;20464;-66
2023/02/13 01:04:12;;;;;;;8.77;3.03;;;1.40;98.00;;;;;;5013909;28;20796;-66
2023/02/13 01:06:39;;;;;;;7.07;3.50;;;1.40;98.00;;;;;;5013939;28;20456;-67
2023/02/13 01:09:06;;;;;;;4.47;2.63;;;1.30;98.00;;;;;;5013962;28;20494;-67
2023/02/13 01:11:33;;;;;;;9.33;3.67;;;1.40;98.00;;;;;;5014059;28;20451;-67
2023/02/13 01:14:00;;;;;;;18.37;3.83;;;1.50;98.00;;;;;;5012660;28;20452;-66
2023/02/13 01:16:28;;;;;;;4.77;3.07;;;1.40;98.00;;;;;;5013793;28;20467;-67
2023/02/13 01:18:55;;;;;;;3.10;2.67;;;1.00;98.00;;;;;;5013419;28;20551;-67
2023/02/13 01:21:24;;;;;;;7.83;4.03;;;1.10;98.00;;;;;;5013976;28;20819;-67
2023/02/13 01:23:51;;;;;;;4.80;2.93;;;1.00;98.00;;;;;;5013523;28;20574;-66
2023/02/13 01:26:20;;;;;;;5.83;3.53;;;1.00;98.00;;;;;;5013483;28;20561;-66
2023/02/13 01:28:48;;;;;;;6.70;2.57;;;1.10;98.00;;;;;;5013558;28;20475;-67
2023/02/13 01:31:15;;;;;;;3.23;2.43;;;1.00;98.00;;;;;;5014282;28;20448;-66
2023/02/13 01:33:42;;;;;;;8.77;2.97;;;1.10;98.00;;;;;;5013943;28;20466;-66
2023/02/13 01:36:12;;;;;;;6.87;3.83;;;1.00;98.00;;;;;;5013447;28;20812;-66
2023/02/13 01:38:42;;;;;;;5.17;3.23;;;1.00;98.00;;;;;;5013596;28;20556;-66
2023/02/13 01:41:10;;;;;;;5.50;3.50;;;1.00;98.00;;;;;;5012102;28;20456;-66
2023/02/13 01:43:58;;;;;;;2.60;2.43;;;1.10;98.00;;;;;;5013425;28;20483;-66
2023/02/13 01:46:35;;;;;;;18.87;3.67;;;1.10;98.00;;;;;;5011888;28;20470;-66
2023/02/13 01:49:10;;;;;;;4.53;2.87;;;1.20;98.00;;;;;;5013377;28;20505;-66
2023/02/13 01:51:38;;;;;;;10.03;3.47;;;1.10;98.00;;;;;;5013189;28;20466;-66
2023/02/13 01:54:12;;;;;;;22.67;3.53;;;1.00;98.00;;;;;;5012926;28;20997;-66
2023/02/13 01:56:44;;;;;;;5.13;3.07;;;1.00;98.00;;;;;;5013033;28;20460;-67
2023/02/13 01:59:15;;;;;;;4.40;3.63;;;0.90;98.00;;;;;;5012939;28;20464;-66
2023/02/13 02:01:43;;;;;;;5.83;3.37;;;0.70;98.00;;;;;;5013041;28;20472;-67
2023/02/13 02:04:14;;;;;;;8.43;4.00;;;0.80;98.00;;;;;;5012778;28;20483;-66
2023/02/13 02:06:46;;;;;;;5.43;3.77;;;0.80;98.00;;;;;;5011824;28;20517;-66
2023/02/13 02:09:19;;;;;;;5.37;2.80;;;0.70;98.00;;;;;;5012633;28;20535;-66
2023/02/13 02:11:52;;;;;;;6.70;3.23;;;0.70;98.00;;;;;;5012941;28;20464;-66
2023/02/13 02:14:19;;;;;;;8.07;3.60;;;0.90;98.00;;;;;;5012188;28;20458;-66
2023/02/13 02:16:46;;;;;;;5.80;3.87;;;0.90;98.00;;;;;;5012669;28;20494;-67
2023/02/13 02:19:21;;;;;;;9.80;4.07;;;0.70;98.00;;;;;;5012733;28;20459;-67
2023/02/13 02:22:16;;;;;;;6.70;3.63;;;0.50;98.00;;;;;;5012825;28;20459;-66
2023/02/13 02:25:34;;;;;;;3.07;2.53;;;0.50;98.00;;;;;;5012788;28;20467;-67
2023/02/13 02:28:46;;;;;;;7.70;4.20;;;0.60;98.00;;;;;;5003331;28;20479;-66
2023/02/13 02:32:04;;;;;;;3.77;2.70;;;0.60;98.00;;;;;;4993274;28;20517;-66
2023/02/13 02:34:39;;;;;;;4.93;3.40;;;0.60;98.00;;;;;;5012533;28;20980;-66
2023/02/13 02:37:18;;;;;;;2.57;1.87;;;0.70;98.00;;;;;;5012473;28;20518;-67
2023/02/13 02:39:56;;;;;;;9.30;3.93;;;0.60;98.00;;;;;;5012421;28;20455;-66
2023/02/13 02:42:32;;;;;;;4.40;2.97;;;0.60;98.00;;;;;;5012510;28;20818;-67
2023/02/13 02:45:09;;;;;;;8.30;3.10;;;0.60;98.00;;;;;;5012058;28;20886;-66
2023/02/13 02:50:37;;;;;;;4.40;3.00;;;0.50;98.00;;;;;;5012186;28;20443;-67
2023/02/13 02:53:24;;;;;;;8.77;3.23;;;0.40;98.00;;;;;;5012262;28;20463;-66
2023/02/13 02:55:55;;;;;;;7.90;3.07;;;0.30;98.00;;;;;;5011018;28;20462;-66
2023/02/13 03:06:55;;;;;;;5.50;2.97;;;0.20;98.00;;;;;;5012094;28;20538;-66
2023/02/13 03:15:04;;;;;;;2.97;2.10;;;0.40;98.00;;;;;;5011885;28;20881;-66
2023/02/13 03:23:34;;;;;;;9.70;2.50;;;0.40;98.00;;;;;;4989985;28;20534;-66
2023/02/13 03:26:23;;;;;;;3.83;2.70;;;0.50;98.00;;;;;;4978221;28;20848;-67
2023/02/13 03:31:52;;;;;;;6.90;3.40;;;0.40;98.00;;;;;;4994047;28;20462;-66
2023/02/13 03:34:23;;;;;;;4.50;3.10;;;0.50;98.00;;;;;;5016084;28;20480;-67
2023/02/13 03:39:52;;;;;;;6.20;3.47;;;0.60;98.00;;;;;;5015791;28;20445;-65
2023/02/13 03:42:26;;;;;;;2.70;1.73;;;0.50;98.00;;;;;;5015548;28;20477;-66
2023/02/13 03:47:38;;;;;;;5.67;3.27;;;0.40;98.00;;;;;;5015039;28;20447;-67
2023/02/13 03:50:07;;;;;;;7.07;4.00;;;0.30;98.00;;;;;;5015458;28;20470;-66
2023/02/13 03:52:41;;;;;;;6.07;2.80;;;0.20;98.00;;;;;;5015368;28;20538;-66
2023/02/13 04:00:48;;;;;;;8.13;4.20;;;0.30;98.00;;;;;;5015411;28;20493;-66
2023/02/13 04:03:20;;;;;;;6.73;3.53;;;0.30;98.00;;;;;;5013981;28;20490;-66
2023/02/13 04:05:50;;;;;;;5.67;2.50;;;0.30;98.00;;;;;;5015240;28;20522;-65
2023/02/13 04:08:19;;;;;;;4.37;2.23;;;0.40;98.00;;;;;;5013975;28;20482;-66
2023/02/13 04:10:53;;;;;;;5.20;3.13;;;0.40;98.00;;;;;;5015243;28;20528;-66
2023/02/13 04:13:27;;;;;;;5.30;2.50;;;0.30;98.00;;;;;;5015268;28;20462;-66
2023/02/13 04:15:58;;;;;;;5.93;2.37;;;0.30;98.00;;;;;;5014589;28;20909;-66
2023/02/13 04:18:30;;;;;;;3.63;2.63;;;0.10;98.00;;;;;;5014557;28;20448;-66
2023/02/13 04:20:57;;;;;;;11.70;4.13;;;0.10;98.00;;;;;;5014743;28;20515;-65
2023/02/13 04:23:26;;;;;;;3.57;2.43;;;0.10;98.00;;;;;;5014862;28;20483;-66
2023/02/13 04:25:55;;;;;;;6.63;4.20;;;0.10;98.00;;;;;;5015122;28;20830;-66
2023/02/13 04:28:23;;;;;;;4.23;2.90;;;0.20;98.00;;;;;;5015035;28;20471;-66
2023/02/13 04:30:51;;;;;;;7.27;4.03;;;0.10;98.00;;;;;;5014884;28;20470;-65
2023/02/13 04:33:19;;;;;;;5.60;2.93;;;0.20;98.00;;;;;;5014833;28;20456;-66
2023/02/13 04:35:46;;;;;;;7.47;3.33;;;0.10;98.00;;;;;;5013925;28;20513;-66
2023/02/13 04:38:13;;;;;;;4.27;3.03;;;0.10;98.00;;;;;;5014666;28;20466;-66
2023/02/13 04:40:42;;;;;;;4.97;2.23;;;0.20;98.00;;;;;;5013216;28;20466;-66
2023/02/13 04:43:09;;;;;;;5.23;2.70;;;0.30;98.00;;;;;;5014537;28;20486;-66
2023/02/13 04:45:36;;;;;;;4.37;3.20;;;0.20;98.00;;;;;;5014228;28;20461;-66
2023/02/13 04:48:03;;;;;;;2.67;1.87;;;0.30;98.00;;;;;;5014417;28;20469;-66
2023/02/13 04:50:30;;;;;;;5.97;2.73;;;0.20;98.00;;;;;;5014507;28;20522;-66
2023/02/13 04:52:58;;;;;;;6.03;2.90;;;0.30;98.00;;;;;;5014322;28;20467;-66
2023/02/13 04:55:27;;;;;;;4.70;3.50;;;0.30;98.00;;;;;;5014243;28;20458;-66
2023/02/13 04:57:57;;;;;;;7.50;2.90;;;0.20;98.00;;;;;;5014177;28;20488;-66
2023/02/13 05:00:25;;;;;;;3.97;2.53;;;0.10;98.00;;;;;;5014313;28;20475;-67
2023/02/13 05:02:53;;;;;;;7.07;4.10;;;0.20;98.00;;;;;;5012874;28;20468;-67
2023/02/13 05:05:20;;;;;;;6.37;3.10;;;0.20;98.00;;;;;;5014039;28;20550;-67
2023/02/13 05:07:47;;;;;;;7.33;2.50;;;0.20;98.00;;;;;;5012841;28;20973;-66
2023/02/13 05:10:15;;;;;;;3.80;2.97;;;0.20;98.00;;;;;;5014092;28;20463;-66
2023/02/13 05:12:42;;;;;;;5.10;3.10;;;0.30;98.00;;;;;;5013953;28;20956;-67
2023/02/13 05:15:11;;;;;;;2.90;2.50;;;0.30;98.00;;;;;;5012586;28;20460;-66
2023/02/13 05:17:38;;;;;;;6.20;2.83;;;0.20;98.00;;;;;;5012881;28;20494;-66
2023/02/13 05:20:06;;;;;;;9.43;2.90;;;0.20;98.00;;;;;;5014039;28;20459;-66
2023/02/13 05:25:18;;;;;;;4.00;2.80;;;-0.10;98.00;;;;;;5013615;28;20458;-66
2023/02/13 05:27:46;;;;;;;9.03;2.87;;;-0.10;98.00;;;;;;5013033;28;20873;-66
2023/02/13 05:30:15;;;;;;;6.90;3.00;;;-0.10;98.00;;;;;;5012500;28;20458;-66
2023/02/13 05:32:43;;;;;;;6.20;3.67;;;-0.10;98.00;;;;;;5013591;28;20459;-66
2023/02/13 05:35:10;;;;;;;3.40;2.50;;;-0.20;98.00;;;;;;5013518;28;20525;-66
2023/02/13 05:37:40;;;;;;;9.17;3.63;;;-0.10;98.00;;;;;;5013381;28;20552;-66
2023/02/13 05:40:08;;;;;;;5.10;3.80;;;-0.10;98.00;;;;;;5013440;28;20463;-65
2023/02/13 05:42:36;;;;;;;5.00;3.13;;;0.00;98.00;;;;;;5012216;28;20466;-66
2023/02/13 05:45:03;;;;;;;6.30;3.37;;;0.00;98.00;;;;;;5013155;28;21031;-66
2023/02/13 05:47:32;;;;;;;8.13;2.60;;;-0.10;98.00;;;;;;5013391;28;20466;-65
2023/02/13 05:50:01;;;;;;;6.20;3.20;;;-0.10;98.00;;;;;;5013215;28;20930;-66
2023/02/13 05:52:29;;;;;;;7.90;2.90;;;0.10;98.00;;;;;;5013371;28;20462;-66
2023/02/13 05:54:57;;;;;;;5.57;4.00;;;0.00;98.00;;;;;;5013109;28;20950;-66
2023/02/13 05:57:25;;;;;;;5.27;3.00;;;-0.10;98.00;;;;;;5012010;28;20467;-66
2023/02/13 05:59:52;;;;;;;2.53;1.83;;;-0.10;98.00;;;;;;5011896;28;20459;-66
2023/02/13 06:02:19;;;;;;;3.93;2.70;;;-0.20;98.00;;;;;;5013269;28;20867;-66
2023/02/13 06:04:47;;;;;;;9.43;3.07;;;-0.20;98.00;;;;;;5012785;28;20510;-66
2023/02/13 06:07:14;;;;;;;5.50;2.60;;;-0.10;98.00;;;;;;5012952;28;20458;-65
2023/02/13 06:09:41;;;;;;;10.17;3.40;;;-0.20;98.00;;;;;;5012910;28;20544;-65
2023/02/13 06:12:11;;;;;;;5.37;3.33;;;-0.10;98.00;;;;;;5012879;28;20452;-66
2023/02/13 06:14:39;;;;;;;4.97;2.50;;;-0.10;98.00;;;;;;5013139;28;20470;-66
2023/02/13 06:17:06;;;;;;;3.50;2.30;;;-0.30;98.00;;;;;;5012713;28;20956;-66
2023/02/13 06:19:33;;;;;;;3.20;2.33;;;-0.40;98.00;;;;;;5013035;28;20527;-66
2023/02/13 06:22:01;;;;;;;3.33;2.60;;;-0.40;98.00;;;;;;5012998;28;20462;-65
2023/02/13 06:24:29;;;;;;;5.43;3.47;;;-0.30;98.00;;;;;;5012831;28;20490;-66
2023/02/13 06:26:56;;;;;;;6.67;3.27;;;-0.20;98.00;;;;;;5011437;28;20973;-66
2023/02/13 06:29:25;;;;;;;3.63;2.30;;;-0.10;98.00;;;;;;5012493;28;20455;-66
2023/02/13 06:31:52;;;;;;;5.60;3.33;;;-0.10;98.00;;;;;;5011271;28;20462;-67
2023/02/13 06:34:19;;;;;;;4.57;2.67;;;-0.10;98.00;;;;;;5012496;28;20466;-65
2023/02/13 06:36:46;;;;;;;5.17;2.90;;;-0.20;98.00;;;;;;5012224;28;20470;-66
2023/02/13 06:39:15;;;;;;;2.77;2.33;;;-0.20;98.00;;;;;;5012407;28;20474;-66
2023/02/13 06:41:42;;;;;;;6.17;2.90;;;-0.20;98.00;;;;;;5012212;28;20806;-66
2023/02/13 06:44:10;;;;;;;3.47;2.60;;;-0.20;98.00;;;;;;5010735;28;20479;-66
2023/02/13 06:46:37;;;;;;;6.10;3.20;;;-0.20;98.00;;;;;;5012327;28;20811;-64
2023/02/13 06:49:04;;;;;;;6.07;3.57;;;-0.10;98.00;;;;;;5012187;28;20978;-65
2023/02/13 06:51:31;;;;;;;7.33;4.00;;;-0.10;98.00;;;;;;5012255;28;20470;-64
2023/02/13 06:53:58;;;;;;;4.13;2.57;;;-0.20;98.00;;;;;;5012012;28;20986;-65
2023/02/13 06:56:27;;;;;;;5.83;3.10;;;-0.30;98.00;;;;;;4994853;28;20457;-64
2023/02/13 06:58:54;;;;;;;6.57;2.73;;;-0.20;98.00;;;;;;5011549;28;20469;-64
2023/02/13 07:01:21;;;;;;;6.03;3.10;;;0.00;98.00;;;;;;5012523;28;20897;-67
2023/02/13 07:03:48;;;;;;;8.10;3.70;;;0.00;98.00;;;;;;5012089;28;20486;-70
2023/02/13 07:06:18;;;;;;;8.17;5.13;;;0.00;98.00;;;;;;5010853;28;20466;-70
2023/02/13 07:08:45;;;;;;;13.33;2.77;;;0.00;98.00;;;;;;5012108;28;20618;-70
2023/02/13 07:11:17;;;;;;;10.97;4.53;;;0.00;98.00;;;;;;5012102;28;20459;-70
2023/02/13 07:13:46;;;;;;;5.83;3.13;;;-0.10;98.00;;;;;;5011991;28;20518;-70
2023/02/13 07:16:13;;;;;;;6.30;3.50;;;-0.20;98.00;;;;;;5012134;28;20540;-70
2023/02/13 07:18:41;;;;;;;6.30;3.03;;;-0.30;98.00;;;;;;5012102;28;20463;-70
2023/02/13 07:21:08;;;;;;;9.03;3.20;;;-0.30;98.00;;;;;;5011943;28;20808;-70
2023/02/13 07:23:35;;;;;;;4.33;2.37;;;-0.40;98.00;;;;;;5010921;28;20463;-70
2023/02/13 07:26:03;;;;;;;8.07;4.00;;;-0.30;98.00;;;;;;5012563;28;20454;-70
2023/02/13 07:28:30;;;;;;;9.73;2.53;;;-0.30;98.00;;;;;;5010672;28;20498;-70
2023/02/13 07:31:04;;;;;;;6.40;3.20;;;-0.40;98.00;;;;;;5011888;28;20466;-71
2023/02/13 07:33:31;;;;;;;8.47;3.17;;;-0.40;98.00;;;;;;5012016;28;20819;-71
2023/02/13 07:35:58;;;;;;;9.83;3.63;;;-0.20;98.00;;;;;;5010593;28;20467;-71
2023/02/13 07:38:26;;;;;;;5.97;3.67;;;-0.30;98.00;;;;;;5011752;28;20451;-70
2023/02/13 07:40:53;;;;;;;3.20;2.30;;;-0.30;98.00;;;;;;5011641;28;21077;-71
2023/02/13 07:43:23;;;;;;;4.43;3.37;;;-0.30;98.00;;;;;;5010760;28;20459;-70
2023/02/13 07:45:54;;;;;;;9.60;3.33;;;-0.20;98.00;;;;;;5011692;28;20544;-70
2023/02/13 07:48:22;;;;;;;4.90;3.37;;;-0.10;98.00;;;;;;5011952;28;20487;-71
2023/02/13 07:50:50;;;;;;;6.03;2.90;;;-0.10;98.00;;;;;;5011730;28;20463;-70
2023/02/13 07:53:17;;;;;;;5.83;3.93;;;-0.10;98.00;;;;;;5010332;28;21031;-71
2023/02/13 07:55:44;;;;;;;5.73;3.03;;;-0.10;98.00;;;;;;5011726;28;20463;-70
2023/02/13 07:58:11;;;;;;;6.80;3.30;;;-0.10;98.00;;;;;;5011611;28;20809;-71
2023/02/13 08:00:38;;;;;;;11.37;4.90;;;-0.10;98.00;;;;;;5011760;28;20468;-70
2023/02/13 08:03:05;;;;;;;8.17;3.97;;;0.00;98.00;;;;;;5010405;28;20488;-71
2023/02/13 08:05:34;;;;;;;6.20;3.63;;;0.10;98.00;;;;;;5011652;28;20483;-70
2023/02/13 08:08:01;;;;;;;6.20;3.63;;;0.30;98.00;;;;;;5029506;28;20458;-70
2023/02/13 08:13:16;;;;;;;9.47;4.90;;;0.30;98.00;;;;;;5034185;28;20504;-70
2023/02/13 08:15:43;;;;;;;9.20;4.10;;;0.30;98.00;;;;;;5034796;28;20474;-70
2023/02/13 08:18:13;;;;;;;12.80;3.43;;;0.30;98.00;;;;;;5035092;28;20504;-71
2023/02/13 08:20:41;;;;;;;6.13;3.40;;;0.40;98.00;;;;;;5034990;28;20457;-70
2023/02/13 08:23:13;;;;;;;4.03;3.40;;;0.30;98.00;;;;;;5034872;28;20803;-70
2023/02/13 08:25:40;;;;;;;4.80;3.07;;;0.40;98.00;;;;;;5034308;28;20486;-70
2023/02/13 08:28:07;;;;;;;10.57;5.20;;;0.60;98.00;;;;;;5034757;28;20869;-70
2023/02/13 08:30:34;;;;;;;9.10;5.40;;;0.60;98.00;;;;;;5034328;28;20455;-69
2023/02/13 08:33:01;;;;;;;11.00;4.20;;;0.70;98.00;;;;;;5034438;28;20470;-70
2023/02/13 08:35:30;;;;;;;11.23;4.40;;;0.80;98.00;;;;;;5034412;28;20450;-71
2023/02/13 08:38:02;;;;;;;6.43;4.70;;;1.10;98.00;;;;;;5034286;28;20549;-69
2023/02/13 08:40:29;;;;;;;5.40;3.67;;;1.20;98.00;;;;;;5034991;28;20483;-70
2023/02/13 08:43:00;;;;;;;9.03;5.07;;;1.30;98.00;;;;;;5034267;28;20588;-70
2023/02/13 08:45:29;;;;;;;8.07;4.90;;;1.30;98.00;;;;;;5034358;28;20652;-70
2023/02/13 08:47:58;;;;;;;7.63;4.50;;;1.40;98.00;;;;;;5034275;28;20467;-70
2023/02/13 08:50:25;;;;;;;9.00;3.43;;;1.40;98.00;;;;;;5034271;28;20795;-68
2023/02/13 08:52:52;;;;;;;11.60;5.07;;;1.50;98.00;;;;;;5034103;28;20462;-70
2023/02/13 08:55:21;;;;;;;7.63;3.60;;;1.60;98.00;;;;;;5034124;28;20470;-70
2023/02/13 08:57:48;;;;;;;6.03;3.23;;;1.70;98.00;;;;;;5034100;28;20476;-70
2023/02/13 09:00:16;;;;;;;8.27;3.93;;;1.80;98.00;;;;;;5033982;28;20462;-71
2023/02/13 09:02:43;;;;;;;11.13;4.57;;;1.90;98.00;;;;;;5033449;28;20462;-71
2023/02/13 09:05:10;;;;;;;13.37;4.80;;;2.00;98.00;;;;;;5011265;28;20496;-71
2023/02/13 09:07:38;;;;;;;15.00;6.30;;;2.10;98.00;;;;;;5014109;28;20874;-71
2023/02/13 09:10:07;;;;;;;12.10;4.23;;;2.10;98.00;;;;;;5013865;28;20463;-71
2023/02/13 09:12:36;;;;;;;9.63;5.40;;;2.30;98.00;;;;;;5014138;28;21003;-70
2023/02/13 09:15:04;;;;;;;5.67;3.97;;;2.30;98.00;;;;;;5012615;28;20462;-70
2023/02/13 09:17:31;;;;;;;8.90;4.93;;;2.40;98.00;;;;;;5013759;28;20463;-71
2023/02/13 09:19:58;;;;;;;13.10;4.10;;;2.60;98.00;;;;;;5013770;28;20824;-71
2023/02/13 09:22:25;;;;;;;4.37;4.03;;;2.80;98.00;;;;;;5013492;28;20466;-70
2023/02/13 09:24:52;;;;;;;5.30;4.13;;;2.80;98.00;;;;;;5013245;28;20495;-70
2023/02/13 09:27:19;;;;;;;11.87;5.77;;;2.90;98.00;;;;;;5013694;28;20880;-71
2023/02/13 09:29:48;;;;;;;7.30;3.53;;;3.00;98.00;;;;;;5012348;28;20476;-71
2023/02/13 09:32:18;;;;;;;4.63;3.23;;;3.00;98.00;;;;;;5013501;28;20467;-71
2023/02/13 09:34:47;;;;;;;4.80;3.00;;;3.20;98.00;;;;;;5016428;28;20484;-71
2023/02/13 09:37:14;;;;;;;2.67;2.40;;;3.40;98.00;;;;;;5033029;28;20467;-65
2023/02/13 09:39:41;;;;;;;4.43;3.00;;;4.60;98.00;;;;;;5033174;28;20837;-71
2023/02/13 09:42:18;;;;;;;4.70;3.23;;;5.80;98.00;;;;;;5033265;28;20861;-71
2023/02/13 09:44:48;;;;;;;3.57;2.30;;;6.10;98.00;;;;;;5031720;28;20571;-71
2023/02/13 09:47:22;;;;;;;6.43;2.63;;;6.10;98.00;;;;;;5014327;28;20471;-71
2023/02/13 09:49:53;;;;;;;4.70;3.30;;;6.10;98.00;;;;;;5011348;28;20744;-68
2023/02/13 09:52:21;;;;;;;3.70;2.37;;;6.00;98.00;;;;;;5012568;28;20464;-70
2023/02/13 09:54:48;;;;;;;6.30;2.47;;;6.00;98.00;;;;;;5011298;28;20549;-69
2023/02/13 09:57:25;;;;;;;4.67;2.30;;;6.00;98.00;;;;;;5012428;28;20472;-72
2023/02/13 09:59:59;;;;;;;4.77;2.87;;;6.00;98.00;;;;;;5011206;28;20459;-70
2023/02/13 10:02:53;;;;;;;5.73;2.13;;;6.10;98.00;;;;;;5012565;28;20463;-73
2023/02/13 10:05:43;;;;;;;3.17;2.17;;;6.20;98.00;;;;;;5010778;28;20487;-74
2023/02/13 10:08:21;;;;;;;6.70;3.00;;;6.30;98.00;;;;;;5012189;28;20527;-71
2023/02/13 10:10:52;;;;;;;5.13;2.73;;;6.40;98.00;;;;;;5011902;28;20522;-70
2023/02/13 10:13:36;;;;;;;9.63;2.23;;;6.50;98.00;;;;;;5012445;28;20479;-71
2023/02/13 10:16:14;;;;;;;5.83;2.47;;;6.60;98.00;;;;;;5011744;28;20832;-70
2023/02/13 10:18:48;;;;;;;4.90;2.77;;;6.70;98.00;;;;;;5019452;28;20463;-71
2023/02/13 10:21:19;;;;;;;2.90;2.10;;;6.80;98.00;;;;;;5012057;28;20762;-71
2023/02/13 10:23:51;;;;;;;4.60;2.80;;;6.90;98.00;;;;;;5011921;28;20515;-71
2023/02/13 10:26:21;;;;;;;5.57;3.20;;;7.00;98.00;;;;;;5011695;28;20493;-72
2023/02/13 10:30:03;;;;;;;5.90;2.40;;;7.00;98.00;;;;;;4992416;28;20883;-71
2023/02/13 10:31:43;;;;;;;3.10;2.77;;;7.10;98.00;;;;;;4992196;28;20518;-64
2023/02/13 10:34:15;;;;;;;4.90;2.40;;;7.30;98.00;;;;;;4991276;28;20464;-70
2023/02/13 10:36:45;;;;;;;3.80;2.20;;;7.40;98.00;;;;;;5003036;28;20472;-71
2023/02/13 10:39:24;;;;;;;5.63;2.07;;;7.50;98.00;;;;;;5030379;28;20457;-71
2023/02/13 10:41:56;;;;;;;4.37;2.40;;;7.60;98.00;;;;;;5032016;28;20464;-71
2023/02/13 10:44:47;;;;;;;5.57;2.80;;;7.60;98.00;;;;;;5032029;28;20457;-71
2023/02/13 10:47:31;;;;;;;4.17;2.30;;;7.80;98.00;;;;;;5032077;28;20464;-71
2023/02/13 10:50:10;;;;;;;7.93;3.40;;;7.80;98.00;;;;;;5030664;28;20477;-70
2023/02/13 10:52:48;;;;;;;5.60;2.80;;;7.90;98.00;;;;;;5031992;28;20469;-71
2023/02/13 10:55:45;;;;;;;4.30;2.67;;;8.10;98.00;;;;;;5030632;28;20452;-71
2023/02/13 10:58:21;;;;;;;4.70;2.70;;;8.30;98.00;;;;;;5031530;28;20459;-71
2023/02/13 11:00:56;;;;;;;6.00;3.03;;;8.40;98.00;;;;;;5031875;28;20960;-71
2023/02/13 11:03:25;;;;;;;4.50;2.50;;;8.60;98.00;;;;;;5032045;28;20462;-70
2023/02/13 11:05:55;;;;;;;6.03;3.27;;;8.70;98.00;;;;;;5031644;28;20510;-70
2023/02/13 11:08:24;;;;;;;6.33;2.43;;;8.90;98.00;;;;;;5031794;28;20463;-72
2023/02/13 11:10:52;;;;;;;4.93;2.83;;;9.10;98.00;;;;;;5031956;28;20475;-71
2023/02/13 11:13:21;;;;;;;5.53;2.80;;;9.30;98.00;;;;;;5031885;28;20453;-74
2023/02/13 11:16:00;;;;;;;8.13;3.13;;;9.40;98.00;;;;;;5031412;28;20476;-65
2023/02/13 11:18:31;;;;;;;5.83;3.47;;;9.60;98.00;;;;;;5030827;28;20460;-72
2023/02/13 11:21:06;;;;;;;7.47;3.30;;;9.90;98.00;;;;;;5031745;28;20468;-71
2023/02/13 11:23:45;;;;;;;3.83;2.50;;;10.10;98.00;;;;;;5031586;28;20487;-72
2023/02/13 11:26:15;;;;;;;6.10;2.70;;;10.30;98.00;;;;;;5031260;28;21153;-71
2023/02/13 11:28:56;;;;;;;6.80;3.30;;;10.50;98.00;;;;;;5012580;28;20476;-71
2023/02/13 11:31:29;;;;;;;5.23;2.40;;;10.60;98.00;;;;;;5011144;28;20459;-71
2023/02/13 11:34:00;;;;;;;4.10;2.47;;;10.80;98.00;;;;;;5011041;28;20467;-71
2023/02/13 11:36:28;;;;;;;6.53;3.00;;;10.90;98.00;;;;;;5012945;28;20459;-71
2023/02/13 11:39:04;;;;;;;4.27;2.27;;;11.20;98.00;;;;;;5012733;28;20980;-71
2023/02/13 11:41:36;;;;;;;7.40;3.33;;;11.50;98.00;;;;;;5011090;28;20474;-71
2023/02/13 11:44:06;;;;;;;5.20;2.70;;;11.80;98.00;;;;;;5011513;28;20475;-71
2023/02/13 11:46:46;;;;;;;5.83;2.90;;;12.10;98.00;;;;;;5016116;28;21031;-71
2023/02/13 11:49:19;;;;;;;5.10;3.07;;;12.50;98.00;;;;;;5014705;28;20459;-71
2023/02/13 11:51:49;;;;;;;7.83;3.10;;;12.60;98.00;;;;;;5014896;28;20814;-71
2023/02/13 11:54:30;;;;;;;5.70;3.10;;;12.90;98.00;;;;;;5014523;28;20978;-72
2023/02/13 11:56:59;;;;;;;3.87;2.53;;;13.10;98.00;;;;;;5014532;28;20467;-71
2023/02/13 11:59:30;;;;;;;6.70;3.70;;;13.30;98.00;;;;;;5014743;28;20475;-71
2023/02/13 12:02:13;;;;;;;6.77;3.30;;;13.60;98.00;;;;;;5014438;28;20737;-71
2023/02/13 12:04:42;;;;;;;6.90;3.90;;;13.70;98.00;;;;;;5014408;28;20482;-71
2023/02/13 12:07:16;;;;;;;5.90;2.97;;;14.10;97.30;;;;;;5014351;28;20525;-71
2023/02/13 12:09:46;;;;;;;5.33;3.00;;;14.00;96.00;;;;;;5014592;28;20471;-71
2023/02/13 12:12:18;;;;;;;9.37;3.63;;;14.10;96.20;;;;;;5014362;28;20922;-71
2023/02/13 12:14:46;;;;;;;5.30;3.00;;;14.20;95.90;;;;;;5014579;28;20820;-71
2023/02/13 12:17:19;;;;;;;6.63;3.10;;;14.40;95.10;;;;;;5014319;28;20473;-71
2023/02/13 12:19:49;;;;;;;7.90;3.40;;;14.40;94.60;;;;;;5014446;28;20451;-72
2023/02/13 12:22:31;;;;;;;6.70;4.17;;;14.40;94.80;;;;;;5014243;28;21018;-72
2023/02/13 12:25:35;;;;;;;8.50;3.87;;;14.50;94.90;;;;;;5014106;28;20582;-72
2023/02/13 12:28:13;;;;;;;7.00;3.20;;;14.50;94.40;;;;;;5014048;28;20881;-72
2023/02/13 12:31:19;;;;;;;7.40;3.90;;;14.50;94.90;;;;;;5013856;28;20460;-72
2023/02/13 12:34:13;;;;;;;6.03;2.90;;;14.60;94.20;;;;;;5013922;28;20821;-72
2023/02/13 12:37:05;;;;;;;7.57;3.27;;;14.90;93.80;;;;;;5013767;28;20483;-72
2023/02/13 12:39:35;;;;;;;4.70;2.90;;;15.10;93.50;;;;;;5013651;28;20456;-72
2023/02/13 12:42:26;;;;;;;8.60;3.40;;;15.10;93.00;;;;;;5012386;28;20497;-72
2023/02/13 12:45:03;;;;;;;6.60;3.70;;;15.30;93.70;;;;;;5013632;28;20490;-72
2023/02/13 12:47:37;;;;;;;10.00;3.57;;;15.40;92.90;;;;;;5013612;28;20484;-72
2023/02/13 12:50:28;;;;;;;5.90;3.10;;;15.50;92.70;;;;;;5013593;28;20457;-70
2023/02/13 12:53:11;;;;;;;8.30;2.97;;;15.70;91.40;;;;;;5013461;28;20465;-70
2023/02/13 12:56:04;;;;;;;7.33;3.20;;;15.80;91.80;;;;;;5013578;28;20495;-69
2023/02/13 12:58:52;;;;;;;5.93;2.90;;;15.90;91.60;;;;;;5012967;28;20454;-70
2023/02/13 13:01:26;;;;;;;6.40;3.50;;;16.10;91.40;;;;;;5013454;28;20488;-68
2023/02/13 13:04:06;;;;;;;5.37;3.10;;;16.00;91.20;;;;;;5013421;28;21063;-71
2023/02/13 13:06:45;;;;;;;6.13;3.23;;;16.20;90.40;;;;;;5013387;28;20844;-71
2023/02/13 13:09:35;;;;;;;9.90;3.63;;;16.40;90.50;;;;;;5012098;28;20458;-72
2023/02/13 13:12:22;;;;;;;7.60;3.73;;;16.40;89.70;;;;;;5013411;28;20467;-71
2023/02/13 13:14:55;;;;;;;8.70;3.83;;;16.40;89.80;;;;;;5012788;28;20525;-71
2023/02/13 13:17:39;;;;;;;8.40;3.50;;;16.40;90.20;;;;;;5013054;28;20968;-70
2023/02/13 13:20:30;;;;;;;7.13;3.47;;;16.60;89.50;;;;;;5012761;28;20494;-76
2023/02/13 13:23:04;;;;;;;7.60;3.67;;;16.70;89.00;;;;;;5013052;28;20463;-77
2023/02/13 13:25:39;;;;;;;7.80;3.93;;;16.80;88.70;;;;;;5011979;28;20462;-73
2023/02/13 13:28:13;;;;;;;8.03;3.70;;;17.00;88.70;;;;;;5012942;28;20484;-69
2023/02/13 13:30:43;;;;;;;7.83;4.00;;;17.20;88.30;;;;;;5012922;28;20558;-73
2023/02/13 13:33:23;;;;;;;8.53;3.80;;;17.40;87.40;;;;;;5012833;28;20873;-72
2023/02/13 13:35:58;;;;;;;10.63;4.17;;;17.40;87.70;;;;;;5012720;28;20471;-67
2023/02/13 13:38:37;;;;;;;7.13;3.80;;;17.30;86.90;;;;;;5012940;28;20461;-66
2023/02/13 13:41:13;;;;;;;7.83;3.73;;;17.20;87.30;;;;;;5012629;28;20463;-66
2023/02/13 13:43:57;;;;;;;7.90;3.97;;;17.20;87.40;;;;;;5012723;28;20741;-66
2023/02/13 13:46:36;;;;;;;9.33;4.10;;;16.90;87.70;;;;;;5012476;28;20924;-66
2023/02/13 13:49:16;;;;;;;5.20;3.43;;;16.10;89.40;;;;;;5011300;28;20473;-66
2023/02/13 13:51:43;;;;;;;5.20;3.27;;;15.40;90.90;;;;;;5012354;28;20465;-66
2023/02/13 13:54:35;;;;;;;7.20;3.73;;;14.90;92.50;;;;;;5012314;28;20514;-66
2023/02/13 13:57:07;;;;;;;6.93;3.90;;;14.50;93.30;;;;;;5011004;28;20566;-66
2023/02/13 14:00:17;;;;;;;8.40;3.90;;;14.00;95.00;;;;;;5010929;28;20477;-67